Search for airport 
image banner adimage banner adimage banner ad
image banner ad

CA27 - Alcatraz

Located in San Francisco, United States

ICAO - CA27, IATA -

Data provided by Airmate  

General information

Coordinates: N37°49'33" W122°25'17"
Elevation is 70 feet MSL.
Magnetic variation is 16° East
View others Airports in California

Operational data

Special qualification required
Current time UTC:
Current local time:
Weather at : KOAK - Metropolitan Oakland Intl ( 21 km )
METAR: KOAK 210953Z 30007KT 10SM OVC012 15/13 A2989 RMK AO2 SLP120 T01500128
TAF: KOAK 210541Z 2106/2212 30011KT P6SM BKN008 FM210900 29007KT P6SM OVC008 FM211630 29005KT P6SM BKN010 FM211800 28011KT P6SM SCT012 FM212100 30014KT P6SM FEW200 FM220300 30010KT P6SM FEW010 FM221000 29007KT P6SM BKN015
View NOTAMs / SUP AIP / TFR affecting this airport [VIEW]
Communications frequencies: [VIEW]

Runways:

Airport contact information

Address: San Francisco United States

Satellite view of CA27